Time;durP1;ratioP1;P1;durP2;ratioP2;P2;SDS_P1;SDS_P2;PMS_P1;PMS_P2;Temp;Humidity;BMP_temperature;BMP_pressure;BME280_temperature;BME280_humidity;BME280_pressure;Samples;Min_cycle;Max_cycle;Signal;HPM_P1;HPM_P2
2023/03/23 00:00:00;;;;;;;6.63;2.80;;;10.20;99.90;;;;;;4969841;28;20047;-70
2023/03/23 00:02:35;;;;;;;4.53;2.73;;;10.30;99.90;;;;;;4983538;28;20045;-70
2023/03/23 00:05:03;;;;;;;7.18;3.83;;;10.30;99.90;;;;;;4991750;28;20034;-70
2023/03/23 00:07:29;;;;;;;11.05;4.40;;;10.40;99.90;;;;;;4990745;28;20038;-70
2023/03/23 00:09:57;;;;;;;6.32;4.10;;;10.40;99.90;;;;;;4985551;28;20086;-70
2023/03/23 00:12:28;;;;;;;10.50;5.53;;;10.40;99.90;;;;;;4981807;28;20407;-70
2023/03/23 00:14:55;;;;;;;10.98;5.45;;;10.40;99.90;;;;;;4978738;28;20385;-68
2023/03/23 00:17:21;;;;;;;9.85;6.03;;;10.40;99.90;;;;;;4974261;28;20062;-68
2023/03/23 00:19:46;;;;;;;11.15;6.30;;;10.50;99.90;;;;;;4955145;28;20050;-71
2023/03/23 00:22:16;;;;;;;11.43;5.87;;;10.50;99.90;;;;;;4977566;28;20610;-68
2023/03/23 00:24:43;;;;;;;12.05;6.75;;;10.50;99.90;;;;;;4972144;28;20073;-68
2023/03/23 00:27:12;;;;;;;11.93;7.22;;;10.50;99.90;;;;;;4974345;28;20047;-68
2023/03/23 00:29:39;;;;;;;13.10;7.63;;;10.60;99.90;;;;;;4974154;28;20050;-68
2023/03/23 00:32:05;;;;;;;12.05;7.38;;;10.50;99.90;;;;;;4992084;28;20042;-68
2023/03/23 00:34:32;;;;;;;11.33;7.43;;;10.50;99.90;;;;;;4973485;28;20044;-68
2023/03/23 00:36:58;;;;;;;16.42;7.75;;;10.60;99.90;;;;;;4958495;28;20500;-68
2023/03/23 00:39:26;;;;;;;15.02;7.57;;;10.60;99.90;;;;;;4991182;28;20101;-68
2023/03/23 00:42:00;;;;;;;11.30;7.22;;;10.60;99.90;;;;;;4966021;28;20046;-68
2023/03/23 00:44:31;;;;;;;11.20;7.05;;;10.60;99.90;;;;;;4977536;28;20142;-68
2023/03/23 00:47:00;;;;;;;10.23;5.50;;;10.60;99.90;;;;;;4974513;28;20053;-68
2023/03/23 00:49:26;;;;;;;8.25;5.15;;;10.70;99.90;;;;;;4977356;28;20046;-68
2023/03/23 00:51:54;;;;;;;7.72;4.18;;;10.60;99.90;;;;;;4993103;28;20093;-68
2023/03/23 00:54:20;;;;;;;9.43;3.42;;;10.70;99.90;;;;;;4973779;28;20168;-68
2023/03/23 00:56:46;;;;;;;6.60;3.10;;;10.70;99.90;;;;;;4958148;28;20054;-68
2023/03/23 00:59:12;;;;;;;5.47;2.85;;;10.70;99.90;;;;;;4977332;28;20554;-68
2023/03/23 01:01:41;;;;;;;5.60;3.42;;;10.70;99.90;;;;;;4975400;28;20442;-68
2023/03/23 01:04:11;;;;;;;6.10;3.10;;;10.70;99.90;;;;;;4989566;28;20096;-68
2023/03/23 01:06:39;;;;;;;6.38;3.00;;;10.70;99.90;;;;;;4975685;28;20054;-68
2023/03/23 01:09:06;;;;;;;7.03;3.00;;;10.60;99.90;;;;;;4972993;28;20050;-68
2023/03/23 01:11:33;;;;;;;6.30;3.20;;;10.60;99.90;;;;;;4972119;28;20046;-68
2023/03/23 01:13:59;;;;;;;5.70;2.97;;;10.60;99.90;;;;;;4970544;28;20046;-68
2023/03/23 01:16:25;;;;;;;7.45;3.50;;;10.50;99.90;;;;;;4986043;28;20314;-70
2023/03/23 01:18:54;;;;;;;5.85;3.17;;;10.60;99.90;;;;;;4956819;28;20458;-68
2023/03/23 01:21:20;;;;;;;5.45;3.75;;;10.50;99.90;;;;;;4975525;28;20080;-68
2023/03/23 01:23:47;;;;;;;6.18;3.95;;;10.60;99.90;;;;;;4972112;28;20043;-68
2023/03/23 01:26:19;;;;;;;6.25;3.50;;;10.50;99.90;;;;;;4991785;28;20054;-68
2023/03/23 01:28:45;;;;;;;8.70;4.57;;;10.50;99.90;;;;;;4989980;28;20069;-68
2023/03/23 01:31:13;;;;;;;7.93;3.40;;;10.50;99.90;;;;;;4970390;28;20502;-68
2023/03/23 01:33:40;;;;;;;9.32;4.15;;;10.50;99.90;;;;;;4972284;28;20068;-69
2023/03/23 01:36:07;;;;;;;;;;;10.60;99.90;;;;;;4985869;28;20321;-68
2023/03/23 01:38:34;;;;;;;8.33;4.50;;;10.60;99.90;;;;;;4976185;28;19926;-68
2023/03/23 01:41:00;;;;;;;9.15;4.20;;;10.60;99.90;;;;;;4976029;28;20337;-68
2023/03/23 01:43:26;;;;;;;12.38;4.63;;;10.60;99.90;;;;;;4970543;28;20182;-68
2023/03/23 01:45:52;;;;;;;8.87;3.90;;;10.70;99.90;;;;;;4963936;28;20196;-68
2023/03/23 01:48:29;;;;;;;11.57;4.50;;;10.70;99.90;;;;;;4971612;28;20113;-68
2023/03/23 01:50:56;;;;;;;8.75;4.40;;;10.70;99.90;;;;;;4991922;28;20072;-68
2023/03/23 01:53:24;;;;;;;9.85;4.00;;;10.70;99.90;;;;;;4974155;28;20054;-68
2023/03/23 01:55:52;;;;;;;10.52;4.38;;;10.80;99.90;;;;;;4975138;28;20054;-68
2023/03/23 01:58:25;;;;;;;8.68;4.88;;;10.80;99.90;;;;;;4971442;28;20038;-68
2023/03/23 02:00:53;;;;;;;8.85;3.40;;;10.90;99.90;;;;;;4960520;28;20066;-68
2023/03/23 02:03:23;;;;;;;7.93;4.03;;;10.90;99.90;;;;;;4983427;28;20038;-68
2023/03/23 02:05:50;;;;;;;10.25;4.22;;;10.90;99.90;;;;;;4996730;28;20077;-68
2023/03/23 02:08:18;;;;;;;6.82;3.58;;;10.90;99.90;;;;;;5003496;28;20069;-68
2023/03/23 02:10:43;;;;;;;9.13;3.65;;;10.90;99.90;;;;;;4989173;28;20050;-68
2023/03/23 02:13:11;;;;;;;7.90;4.18;;;10.90;99.90;;;;;;4988047;28;20129;-68
2023/03/23 02:16:13;;;;;;;7.15;3.70;;;10.90;99.90;;;;;;4970681;28;20225;-68
2023/03/23 02:19:07;;;;;;;6.68;3.78;;;10.90;99.90;;;;;;4982994;28;20050;-68
2023/03/23 02:22:12;;;;;;;7.22;3.25;;;10.90;99.90;;;;;;4973192;28;20176;-68
2023/03/23 02:25:09;;;;;;;5.38;3.00;;;10.90;99.90;;;;;;4970535;28;20054;-68
2023/03/23 02:27:49;;;;;;;9.20;3.65;;;10.90;99.90;;;;;;4988712;28;20320;-68
2023/03/23 02:30:17;;;;;;;6.40;3.65;;;10.90;99.90;;;;;;4963059;28;20179;-68
2023/03/23 02:33:15;;;;;;;5.38;3.25;;;10.90;99.90;;;;;;4981416;28;20066;-68
2023/03/23 02:35:50;;;;;;;6.20;3.80;;;11.00;99.90;;;;;;4989076;28;20400;-68
2023/03/23 02:38:35;;;;;;;7.95;3.50;;;10.90;99.90;;;;;;4980951;28;20448;-68
2023/03/23 02:41:02;;;;;;;5.57;3.05;;;11.00;99.90;;;;;;4985618;28;20107;-68
2023/03/23 02:43:34;;;;;;;10.20;3.38;;;10.90;99.90;;;;;;4986672;28;20464;-68
2023/03/23 02:46:06;;;;;;;6.82;3.40;;;10.90;99.90;;;;;;4972613;28;20069;-68
2023/03/23 02:48:32;;;;;;;7.28;3.53;;;11.00;99.90;;;;;;4976486;28;20389;-68
2023/03/23 02:51:00;;;;;;;6.28;3.30;;;11.00;99.90;;;;;;4975719;28;20053;-68
2023/03/23 02:53:30;;;;;;;7.05;3.42;;;11.00;99.90;;;;;;4995988;28;20050;-68
2023/03/23 02:55:57;;;;;;;8.02;3.72;;;11.10;99.90;;;;;;4982557;28;20045;-68
2023/03/23 02:58:24;;;;;;;5.80;3.00;;;11.00;99.90;;;;;;4969894;28;20117;-68
2023/03/23 03:00:50;;;;;;;6.97;2.70;;;11.00;99.90;;;;;;4989242;28;20049;-68
2023/03/23 03:03:26;;;;;;;6.53;3.05;;;11.00;99.90;;;;;;4993461;28;20109;-68
2023/03/23 03:06:29;;;;;;;8.85;2.90;;;11.00;99.90;;;;;;4989450;28;20085;-68
2023/03/23 03:09:20;;;;;;;10.80;3.53;;;11.00;99.90;;;;;;4994568;28;20478;-68
2023/03/23 03:11:55;;;;;;;5.65;2.90;;;11.00;99.90;;;;;;4968220;28;20058;-68
2023/03/23 03:14:39;;;;;;;7.20;2.67;;;11.00;99.90;;;;;;4972337;28;20042;-68
2023/03/23 03:17:20;;;;;;;6.07;2.60;;;11.00;99.90;;;;;;4986874;28;20579;-70
2023/03/23 03:19:49;;;;;;;5.55;2.50;;;11.00;99.90;;;;;;4994868;28;20127;-68
2023/03/23 03:22:16;;;;;;;5.53;3.17;;;11.00;99.90;;;;;;4960875;28;20042;-68
2023/03/23 03:24:43;;;;;;;6.45;2.85;;;11.00;99.90;;;;;;4984872;28;20100;-68
2023/03/23 03:27:18;;;;;;;4.90;2.65;;;11.10;99.90;;;;;;4970195;28;20377;-68
2023/03/23 03:29:50;;;;;;;6.22;2.60;;;11.00;99.90;;;;;;4966931;28;20128;-68
2023/03/23 03:32:20;;;;;;;4.50;2.40;;;11.00;99.90;;;;;;4979000;28;20587;-68
2023/03/23 03:34:47;;;;;;;6.78;2.92;;;11.00;99.90;;;;;;4967176;28;20107;-68
2023/03/23 03:37:14;;;;;;;6.25;2.83;;;11.00;99.90;;;;;;4995646;28;20093;-68
2023/03/23 03:39:40;;;;;;;5.63;2.70;;;11.00;99.90;;;;;;4971953;28;20129;-68
2023/03/23 03:42:06;;;;;;;5.77;2.40;;;11.00;99.90;;;;;;4974463;28;20108;-68
2023/03/23 03:44:33;;;;;;;9.25;2.88;;;11.00;99.90;;;;;;4989143;28;20133;-69
2023/03/23 03:46:59;;;;;;;7.68;3.03;;;10.90;99.90;;;;;;4971503;28;20054;-68
2023/03/23 03:49:25;;;;;;;5.10;2.85;;;10.90;99.90;;;;;;4974848;28;20041;-68
2023/03/23 03:51:51;;;;;;;7.93;3.15;;;10.80;99.90;;;;;;4986450;28;20057;-68
2023/03/23 03:54:17;;;;;;;6.17;2.87;;;10.70;99.90;;;;;;4958272;28;20034;-68
2023/03/23 03:56:42;;;;;;;6.73;3.17;;;10.80;99.90;;;;;;4974889;28;20056;-68
2023/03/23 03:59:09;;;;;;;7.38;1.95;;;10.80;99.90;;;;;;4975085;28;20051;-68
2023/03/23 04:01:39;;;;;;;5.57;2.90;;;10.80;99.90;;;;;;4988070;28;20176;-68
2023/03/23 04:04:06;;;;;;;4.07;1.70;;;10.80;99.90;;;;;;4954203;28;20042;-68
2023/03/23 04:06:35;;;;;;;4.97;1.92;;;10.70;99.90;;;;;;4960852;28;20035;-68
2023/03/23 04:09:05;;;;;;;3.83;1.40;;;10.70;99.90;;;;;;4961916;28;20081;-68
2023/03/23 04:11:34;;;;;;;3.78;1.40;;;10.60;99.90;;;;;;4977793;28;20198;-68
2023/03/23 04:14:00;;;;;;;5.55;2.25;;;10.60;99.90;;;;;;4968764;28;20043;-68
2023/03/23 04:16:26;;;;;;;5.23;2.17;;;10.60;99.90;;;;;;4968237;28;20305;-68
2023/03/23 04:18:51;;;;;;;4.65;2.13;;;10.60;99.90;;;;;;4969453;28;20304;-68
2023/03/23 04:21:17;;;;;;;3.13;1.30;;;10.60;99.90;;;;;;4974419;28;20072;-68
2023/03/23 04:23:43;;;;;;;6.97;2.00;;;10.60;99.90;;;;;;4967191;28;20053;-68
2023/03/23 04:26:12;;;;;;;3.90;2.00;;;10.60;99.90;;;;;;4979118;28;20508;-68
2023/03/23 04:28:39;;;;;;;5.68;1.58;;;10.50;99.90;;;;;;4978076;28;20042;-68
2023/03/23 04:31:04;;;;;;;3.97;1.58;;;10.50;99.90;;;;;;4977339;28;20402;-68
2023/03/23 04:33:30;;;;;;;3.20;1.33;;;10.50;99.90;;;;;;4974428;28;20046;-68
2023/03/23 04:36:00;;;;;;;4.43;1.05;;;10.40;99.90;;;;;;4992634;28;20035;-68
2023/03/23 04:38:27;;;;;;;8.63;1.50;;;10.40;99.90;;;;;;4968173;28;20042;-68
2023/03/23 04:40:54;;;;;;;4.32;1.92;;;10.40;99.90;;;;;;5011020;22;20448;-87
2023/03/23 04:43:24;;;;;;;;;;;10.30;99.90;;;;;;4989132;28;20125;-86
2023/03/23 04:46:02;;;;;;;3.88;1.33;;;10.30;99.90;;;;;;4996820;28;20012;-86
2023/03/23 04:48:33;;;;;;;3.42;1.20;;;10.30;99.90;;;;;;4980460;28;20061;-83
2023/03/23 04:51:11;;;;;;;4.10;1.42;;;10.20;99.90;;;;;;4975533;28;20048;-87
2023/03/23 04:53:38;;;;;;;4.18;1.40;;;10.20;99.90;;;;;;4967449;28;20437;-87
2023/03/23 04:56:14;;;;;;;;;;;10.30;99.90;;;;;;4973899;28;20034;-86
2023/03/23 04:59:00;;;;;;;4.22;1.77;;;10.30;99.90;;;;;;4985513;28;19917;-87
2023/03/23 05:02:09;;;;;;;;;;;;;;;;;;;;;
2023/03/23 05:05:25;;;;;;;;;;;;;;;;;;;;;
2023/03/23 05:08:38;;;;;;;;;;;;;;;;;;;;;
2023/03/23 05:11:54;;;;;;;6.53;2.35;;;10.30;99.90;;;;;;4944603;28;20070;-86
2023/03/23 05:15:12;;;;;;;6.32;1.85;;;10.30;99.90;;;;;;4947799;28;20135;-86
2023/03/23 05:18:23;;;;;;;5.97;2.03;;;10.30;99.90;;;;;;4991131;28;20114;-87
2023/03/23 05:21:09;;;;;;;8.50;2.20;;;10.40;99.90;;;;;;4983394;28;20446;-86
2023/03/23 05:23:46;;;;;;;;;;;10.30;99.90;;;;;;4966819;28;20501;-85
2023/03/23 05:26:14;;;;;;;9.32;1.75;;;10.30;99.90;;;;;;4972489;28;19918;-86
2023/03/23 05:28:48;;;;;;;13.90;2.63;;;10.40;99.90;;;;;;4980049;28;20055;-86
2023/03/23 05:31:14;;;;;;;10.93;3.20;;;10.30;99.90;;;;;;4971150;28;20050;-86
2023/03/23 05:33:42;;;;;;;11.07;1.63;;;10.30;99.90;;;;;;4980303;28;20038;-86
2023/03/23 05:36:30;;;;;;;9.05;2.08;;;10.40;99.90;;;;;;4975129;28;20048;-86
2023/03/23 05:38:59;;;;;;;11.52;2.80;;;10.30;99.90;;;;;;4976352;28;20473;-86
2023/03/23 05:44:29;;;;;;;12.73;2.28;;;10.20;99.90;;;;;;4973720;28;20453;-86
2023/03/23 05:47:03;;;;;;;13.77;2.38;;;10.30;99.90;;;;;;4970455;28;20076;-86
2023/03/23 05:49:28;;;;;;;10.00;2.08;;;10.20;99.90;;;;;;4995265;28;20630;-86
2023/03/23 05:52:00;;;;;;;11.77;2.42;;;10.20;99.90;;;;;;4977831;28;20049;-86
2023/03/23 05:54:26;;;;;;;19.35;3.38;;;10.20;99.90;;;;;;4981078;28;20046;-87
2023/03/23 05:57:18;;;;;;;15.63;2.83;;;10.20;99.90;;;;;;4982794;28;20401;-86
2023/03/23 05:59:54;;;;;;;11.30;2.65;;;10.30;99.90;;;;;;4972992;28;20084;-84
2023/03/23 06:02:34;;;;;;;10.30;2.00;;;10.20;99.90;;;;;;4973237;28;20046;-86
2023/03/23 06:05:44;;;;;;;10.77;1.83;;;10.30;99.90;;;;;;4975147;28;20068;-85
2023/03/23 06:08:39;;;;;;;13.17;2.30;;;10.30;99.90;;;;;;4964262;28;20042;-86
2023/03/23 06:11:40;;;;;;;11.45;2.15;;;10.30;99.90;;;;;;4971624;28;20064;-86
2023/03/23 06:18:05;;;;;;;12.95;2.10;;;10.40;99.90;;;;;;4962283;28;20156;-87
2023/03/23 06:20:48;;;;;;;14.45;2.85;;;10.30;99.90;;;;;;4973944;28;20046;-85
2023/03/23 06:23:14;;;;;;;8.05;2.35;;;10.30;99.90;;;;;;4980095;28;20081;-86
2023/03/23 06:26:00;;;;;;;7.32;2.20;;;10.20;99.90;;;;;;4960679;28;20074;-86
2023/03/23 06:28:38;;;;;;;4.45;1.42;;;10.20;99.90;;;;;;4956430;28;20046;-87
2023/03/23 06:33:58;;;;;;;11.57;2.67;;;10.00;99.90;;;;;;4966383;28;20125;-88
2023/03/23 06:36:43;;;;;;;7.80;1.93;;;9.90;99.90;;;;;;4977003;28;20077;-86
2023/03/23 06:39:15;;;;;;;6.47;1.42;;;9.80;99.90;;;;;;4967359;28;20080;-86
2023/03/23 06:41:44;;;;;;;7.22;2.47;;;9.80;99.90;;;;;;4976565;28;20105;-87
2023/03/23 06:44:23;;;;;;;8.43;1.63;;;9.70;99.90;;;;;;4975350;28;20148;-86
2023/03/23 06:46:52;;;;;;;11.27;1.60;;;9.60;99.90;;;;;;4963268;28;20034;-86
2023/03/23 06:49:18;;;;;;;6.55;1.27;;;9.70;99.90;;;;;;4965700;28;20309;-86
2023/03/23 06:51:44;;;;;;;7.18;2.20;;;9.60;99.90;;;;;;4978064;28;20050;-87
2023/03/23 06:54:12;;;;;;;11.13;2.22;;;9.60;99.90;;;;;;4960697;28;20058;-87
2023/03/23 06:56:59;;;;;;;;;;;;;;;;;;;;;
2023/03/23 06:59:39;;;;;;;9.55;2.33;;;9.70;99.90;;;;;;4982616;28;20403;-85
2023/03/23 07:02:20;;;;;;;13.27;2.72;;;9.70;99.90;;;;;;4970769;28;20039;-85
2023/03/23 07:05:15;;;;;;;8.05;2.63;;;9.80;99.90;;;;;;4978611;28;20038;-87
2023/03/23 07:07:53;;;;;;;13.68;2.92;;;9.90;99.90;;;;;;4977824;28;20045;-87
2023/03/23 07:10:56;;;;;;;;;;;;;;;;;;;;;
2023/03/23 07:13:26;;;;;;;22.90;4.00;;;10.00;99.90;;;;;;4964578;28;20042;-87
2023/03/23 07:16:20;;;;;;;11.35;2.10;;;10.10;99.90;;;;;;4956918;28;20398;-87
2023/03/23 07:19:07;;;;;;;12.13;2.30;;;10.10;99.90;;;;;;4980922;28;20056;-87
2023/03/23 07:21:45;;;;;;;;;;;;;;;;;;;;;
2023/03/23 07:24:20;;;;;;;17.00;2.88;;;10.10;99.90;;;;;;4975720;28;20038;-87
2023/03/23 07:26:49;;;;;;;17.63;3.37;;;10.20;99.90;;;;;;4956264;28;20485;-86
2023/03/23 07:29:15;;;;;;;14.77;3.00;;;10.40;99.90;;;;;;4971436;28;20057;-85
2023/03/23 07:31:46;;;;;;;21.73;2.67;;;10.30;99.90;;;;;;4970920;28;20114;-87
2023/03/23 07:34:14;;;;;;;18.38;2.97;;;10.30;99.90;;;;;;4976105;28;20576;-85
2023/03/23 07:36:43;;;;;;;12.82;3.15;;;10.40;99.90;;;;;;4959948;28;20065;-86
2023/03/23 07:39:12;;;;;;;18.88;2.78;;;10.50;99.90;;;;;;4973751;28;20043;-87
2023/03/23 07:41:40;;;;;;;20.25;3.80;;;10.40;99.90;;;;;;4991896;28;20049;-87
2023/03/23 07:44:15;;;;;;;19.98;2.92;;;10.40;99.90;;;;;;4976137;28;20096;-87
2023/03/23 07:46:53;;;;;;;14.48;2.58;;;10.50;99.90;;;;;;4957921;28;20081;-87
2023/03/23 07:49:19;;;;;;;21.33;3.47;;;10.40;99.90;;;;;;4998107;28;20397;-87
2023/03/23 07:51:48;;;;;;;18.90;2.70;;;10.40;99.90;;;;;;4979336;28;20054;-87
2023/03/23 07:54:26;;;;;;;18.30;3.55;;;10.40;99.90;;;;;;4977492;28;20033;-87
2023/03/23 08:00:16;;;;;;;14.00;3.22;;;10.40;99.90;;;;;;4975733;28;20050;-86
2023/03/23 08:02:45;;;;;;;18.17;2.60;;;10.40;99.90;;;;;;4957016;28;20034;-87
2023/03/23 08:05:13;;;;;;;15.95;2.88;;;10.40;99.90;;;;;;4959073;28;20077;-87
2023/03/23 08:07:42;;;;;;;17.23;2.75;;;10.40;99.90;;;;;;4963505;28;20042;-86
2023/03/23 08:10:12;;;;;;;25.40;4.03;;;10.40;99.90;;;;;;4967074;28;20043;-87
2023/03/23 08:12:42;;;;;;;12.35;2.97;;;10.40;99.90;;;;;;4965007;28;20046;-86
2023/03/23 08:15:14;;;;;;;17.08;3.10;;;10.50;99.90;;;;;;4974283;28;20081;-87
2023/03/23 08:17:41;;;;;;;21.55;3.38;;;10.40;99.90;;;;;;4963678;28;20042;-86
2023/03/23 08:20:14;;;;;;;;;;;10.50;99.90;;;;;;4992272;28;20049;-87
2023/03/23 08:22:49;;;;;;;25.25;3.20;;;10.50;99.90;;;;;;4976937;28;19918;-87
2023/03/23 08:25:19;;;;;;;15.45;3.35;;;10.60;99.90;;;;;;4976076;28;20088;-85
2023/03/23 08:27:52;;;;;;;19.58;3.70;;;10.50;99.90;;;;;;4983677;28;20489;-85
2023/03/23 08:30:19;;;;;;;20.73;3.95;;;10.50;99.90;;;;;;4962673;28;20049;-86
2023/03/23 08:32:49;;;;;;;18.80;3.35;;;10.40;99.90;;;;;;4974282;28;20437;-86
2023/03/23 08:35:19;;;;;;;15.07;3.20;;;10.40;99.90;;;;;;4960715;28;20042;-85
2023/03/23 08:37:46;;;;;;;23.98;3.63;;;10.50;99.90;;;;;;4972574;28;20037;-86
2023/03/23 08:40:14;;;;;;;15.77;3.97;;;10.50;99.90;;;;;;4954802;28;20494;-86
2023/03/23 08:42:47;;;;;;;24.25;4.60;;;10.50;99.90;;;;;;4977757;28;20038;-86
2023/03/23 08:48:16;;;;;;;21.85;3.70;;;10.70;99.90;;;;;;4970685;28;20042;-86
2023/03/23 08:50:45;;;;;;;25.83;3.90;;;10.80;99.90;;;;;;4982596;28;20533;-86
2023/03/23 08:53:11;;;;;;;24.33;4.63;;;10.80;99.90;;;;;;4987460;28;20042;-86
2023/03/23 08:55:40;;;;;;;17.55;3.78;;;10.80;99.90;;;;;;4972666;28;20461;-86
2023/03/23 08:58:11;;;;;;;21.25;3.55;;;10.90;99.90;;;;;;4997467;28;20109;-87
2023/03/23 09:00:39;;;;;;;13.70;2.88;;;11.00;99.90;;;;;;4982802;28;20042;-86
2023/03/23 09:03:15;;;;;;;21.15;4.03;;;11.10;99.90;;;;;;4979984;28;20117;-85
2023/03/23 09:05:45;;;;;;;18.52;3.10;;;11.00;99.90;;;;;;4975234;28;20074;-87
2023/03/23 09:08:12;;;;;;;28.33;3.40;;;11.20;99.90;;;;;;4977469;28;20095;-86
2023/03/23 09:10:40;;;;;;;21.70;3.85;;;11.20;99.90;;;;;;4982595;28;20433;-86
2023/03/23 09:13:15;;;;;;;19.65;3.80;;;11.30;99.90;;;;;;4982491;28;20061;-86
2023/03/23 09:15:40;;;;;;;19.73;3.22;;;11.30;99.90;;;;;;4994417;28;20092;-85
2023/03/23 09:18:12;;;;;;;17.42;3.17;;;11.40;99.90;;;;;;4975318;28;20069;-85
2023/03/23 09:20:41;;;;;;;25.23;3.03;;;11.50;99.90;;;;;;4980241;28;20533;-87
2023/03/23 09:23:12;;;;;;;21.23;3.22;;;11.50;99.90;;;;;;5001072;28;20053;-86
2023/03/23 09:25:41;;;;;;;21.77;3.67;;;11.60;99.90;;;;;;4962300;28;20049;-86
2023/03/23 09:28:13;;;;;;;17.85;3.33;;;11.70;99.90;;;;;;4992387;28;20030;-86
2023/03/23 09:31:10;;;;;;;21.75;4.10;;;11.80;99.90;;;;;;4995157;28;20415;-86
2023/03/23 09:33:37;;;;;;;18.60;3.20;;;11.80;99.90;;;;;;4974373;28;20046;-85
2023/03/23 09:36:16;;;;;;;20.42;4.88;;;11.90;99.90;;;;;;4981650;28;20038;-86
2023/03/23 09:38:45;;;;;;;25.17;4.00;;;12.00;99.90;;;;;;4980695;28;20154;-85
2023/03/23 09:41:55;;;;;;;19.95;4.15;;;12.00;99.90;;;;;;4960439;28;20047;-87
2023/03/23 09:44:46;;;;;;;18.20;3.45;;;12.10;99.90;;;;;;4971582;28;20043;-86
2023/03/23 09:47:46;;;;;;;17.13;2.95;;;12.10;99.90;;;;;;4973442;28;20198;-86
2023/03/23 09:50:23;;;;;;;18.65;2.83;;;12.10;99.90;;;;;;4977353;28;20046;-86
2023/03/23 09:53:04;;;;;;;14.30;3.78;;;12.20;99.90;;;;;;4977861;28;20486;-86
2023/03/23 09:56:01;;;;;;;14.38;3.33;;;12.10;99.90;;;;;;4957761;28;20104;-86
2023/03/23 10:01:53;;;;;;;21.63;3.33;;;12.40;99.90;;;;;;4968327;28;20055;-84
2023/03/23 10:04:28;;;;;;;19.13;3.53;;;12.60;99.90;;;;;;4969134;28;20180;-84
2023/03/23 10:07:00;;;;;;;12.40;2.90;;;12.60;99.90;;;;;;4981769;28;20430;-84
2023/03/23 10:09:26;;;;;;;16.50;2.47;;;12.70;99.90;;;;;;4997382;28;20065;-83
2023/03/23 10:12:04;;;;;;;17.88;3.63;;;12.70;99.90;;;;;;4994322;28;20190;-83
2023/03/23 10:14:57;;;;;;;18.42;2.65;;;12.70;99.90;;;;;;4989643;28;20537;-83
2023/03/23 10:17:29;;;;;;;13.27;2.90;;;12.80;99.90;;;;;;4967124;28;20053;-82
2023/03/23 10:20:14;;;;;;;9.93;2.50;;;13.00;99.90;;;;;;4959388;28;20123;-81
2023/03/23 10:23:06;;;;;;;18.25;3.00;;;13.00;99.90;;;;;;4981178;28;20457;-81
2023/03/23 10:25:38;;;;;;;14.52;2.70;;;13.00;99.90;;;;;;4974901;28;20158;-82
2023/03/23 10:28:21;;;;;;;22.02;3.25;;;13.00;99.90;;;;;;5001300;28;20031;-81
2023/03/23 10:30:58;;;;;;;12.50;2.80;;;13.00;99.90;;;;;;4986481;28;20060;-83
2023/03/23 10:33:40;;;;;;;12.75;3.42;;;13.00;99.90;;;;;;4968921;28;20254;-83
2023/03/23 10:36:21;;;;;;;14.25;2.72;;;13.00;99.90;;;;;;4997009;28;20255;-83
2023/03/23 10:39:03;;;;;;;14.82;3.63;;;12.80;99.90;;;;;;4973192;28;20516;-82
2023/03/23 10:41:30;;;;;;;12.85;3.00;;;12.70;99.90;;;;;;4988603;28;20041;-83
2023/03/23 10:43:56;;;;;;;;;;;12.70;99.90;;;;;;4994268;28;20205;-82
2023/03/23 10:46:53;;;;;;;15.88;2.72;;;12.50;99.90;;;;;;4978745;28;19984;-81
2023/03/23 10:49:41;;;;;;;10.03;2.73;;;12.40;99.90;;;;;;4960186;28;20410;-83
2023/03/23 10:55:40;;;;;;;15.60;2.83;;;12.50;99.90;;;;;;4979889;28;20394;-80
2023/03/23 10:58:11;;;;;;;17.17;2.58;;;12.50;99.90;;;;;;4967737;28;20053;-81
2023/03/23 11:00:46;;;;;;;14.50;2.97;;;12.50;99.90;;;;;;4975784;28;20050;-82
2023/03/23 11:03:35;;;;;;;11.45;2.38;;;12.50;99.90;;;;;;4961881;28;20524;-83
2023/03/23 11:06:06;;;;;;;12.02;2.28;;;12.60;99.90;;;;;;4972988;28;20091;-82
2023/03/23 11:08:55;;;;;;;11.38;2.25;;;12.60;99.90;;;;;;4965190;28;20458;-82
2023/03/23 11:11:29;;;;;;;10.85;2.33;;;12.60;99.90;;;;;;4980932;28;20397;-81
2023/03/23 11:14:18;;;;;;;16.33;2.67;;;12.50;99.90;;;;;;4975446;28;20042;-82
2023/03/23 11:17:00;;;;;;;9.65;2.20;;;12.60;99.90;;;;;;4970108;28;20042;-84
2023/03/23 11:19:31;;;;;;;11.82;1.95;;;12.60;99.90;;;;;;4964984;28;20034;-82
2023/03/23 11:22:04;;;;;;;10.00;2.03;;;12.60;99.90;;;;;;4993505;28;20118;-82
2023/03/23 11:24:55;;;;;;;10.52;2.30;;;12.60;99.90;;;;;;4970716;28;20038;-84
2023/03/23 11:27:23;;;;;;;8.93;1.90;;;12.60;99.90;;;;;;4986016;28;20057;-82
2023/03/23 11:30:11;;;;;;;16.67;3.85;;;12.50;99.90;;;;;;4982871;28;20440;-83
2023/03/23 11:32:43;;;;;;;17.77;2.08;;;12.50;99.90;;;;;;4977649;28;20138;-83
2023/03/23 11:35:26;;;;;;;11.55;2.10;;;12.40;99.90;;;;;;4961881;28;20053;-83
2023/03/23 11:37:58;;;;;;;10.48;1.90;;;12.40;99.90;;;;;;4961544;28;20042;-83
2023/03/23 11:40:29;;;;;;;9.40;2.05;;;12.40;99.90;;;;;;4961108;28;20088;-82
2023/03/23 11:43:07;;;;;;;11.18;1.67;;;12.40;99.90;;;;;;4968411;28;20066;-83
2023/03/23 11:45:51;;;;;;;14.77;2.50;;;12.40;99.90;;;;;;4973372;28;20298;-85
2023/03/23 11:48:30;;;;;;;8.88;2.05;;;12.40;99.90;;;;;;4962943;28;20430;-82
2023/03/23 11:51:02;;;;;;;12.55;2.03;;;12.40;99.90;;;;;;4977869;28;20046;-84
2023/03/23 11:53:55;;;;;;;7.55;1.52;;;12.40;99.90;;;;;;4975449;28;20042;-84
2023/03/23 11:56:43;;;;;;;11.88;2.95;;;12.40;99.90;;;;;;4984980;28;20042;-84
2023/03/23 11:59:16;;;;;;;7.30;1.30;;;12.40;99.90;;;;;;4970808;28;20053;-85
2023/03/23 12:01:56;;;;;;;11.50;1.90;;;12.40;99.90;;;;;;4965865;28;20042;-84
2023/03/23 12:04:49;;;;;;;9.00;1.98;;;12.40;99.90;;;;;;4979880;28;20043;-84
2023/03/23 12:07:32;;;;;;;9.38;1.73;;;12.50;99.90;;;;;;4985167;28;20061;-82
2023/03/23 12:10:40;;;;;;;9.90;2.33;;;12.70;99.90;;;;;;4975229;28;20061;-85
2023/03/23 12:13:10;;;;;;;8.15;2.50;;;12.90;99.90;;;;;;4976392;28;20046;-83
2023/03/23 12:16:17;;;;;;;10.20;1.40;;;13.10;99.90;;;;;;4971518;28;20301;-82
2023/03/23 12:19:05;;;;;;;16.98;3.50;;;13.10;99.90;;;;;;4977696;28;20283;-82
2023/03/23 12:22:10;;;;;;;10.13;1.92;;;13.20;99.90;;;;;;4992527;28;20038;-83
2023/03/23 12:24:54;;;;;;;10.13;1.90;;;13.30;99.90;;;;;;4972520;28;20411;-83
2023/03/23 12:27:47;;;;;;;9.30;2.35;;;13.30;99.90;;;;;;4993096;28;20069;-84
2023/03/23 12:30:21;;;;;;;11.85;1.65;;;13.30;99.90;;;;;;4996429;28;20077;-83
2023/03/23 12:33:34;;;;;;;12.25;1.85;;;13.30;99.90;;;;;;4977011;28;20052;-82
2023/03/23 12:36:29;;;;;;;8.82;1.52;;;13.30;99.90;;;;;;4931345;28;20050;-83
2023/03/23 12:39:33;;;;;;;11.73;2.05;;;13.30;99.90;;;;;;4974904;28;20093;-84
2023/03/23 12:42:20;;;;;;;14.40;2.00;;;13.20;99.90;;;;;;4992461;28;20050;-85
2023/03/23 12:45:00;;;;;;;7.80;1.58;;;13.20;99.90;;;;;;4972890;28;20516;-84
2023/03/23 12:47:28;;;;;;;;;;;13.30;99.90;;;;;;4978108;28;20521;-84
2023/03/23 12:50:03;;;;;;;13.18;2.10;;;13.30;99.90;;;;;;4978978;28;19917;-84
2023/03/23 12:56:22;;;;;;;12.45;1.90;;;13.60;99.90;;;;;;4944697;28;20054;-83
2023/03/23 12:59:02;;;;;;;12.35;1.77;;;13.60;99.90;;;;;;4969071;28;20596;-84
2023/03/23 13:01:35;;;;;;;11.13;1.88;;;13.70;99.90;;;;;;4962141;28;20050;-85
2023/03/23 13:04:15;;;;;;;12.85;2.13;;;13.70;99.90;;;;;;4978384;28;20038;-84
2023/03/23 13:06:46;;;;;;;7.80;1.85;;;13.60;99.90;;;;;;4991399;28;20129;-82
2023/03/23 13:09:40;;;;;;;13.02;2.75;;;13.40;99.90;;;;;;4994248;28;20039;-83
2023/03/23 13:12:25;;;;;;;25.35;2.50;;;13.40;99.90;;;;;;4987350;28;20120;-83
2023/03/23 13:15:22;;;;;;;11.05;2.58;;;13.30;99.90;;;;;;4971005;28;20050;-83
2023/03/23 13:18:11;;;;;;;12.63;2.75;;;13.20;99.90;;;;;;4993644;28;20034;-83
2023/03/23 13:20:50;;;;;;;11.10;2.50;;;13.10;99.90;;;;;;4964109;28;20321;-83
2023/03/23 13:23:25;;;;;;;11.47;1.83;;;13.00;99.90;;;;;;4999330;28;20041;-83
2023/03/23 13:25:56;;;;;;;11.25;2.15;;;12.90;99.90;;;;;;4963150;28;20042;-85
2023/03/23 13:28:25;;;;;;;15.63;2.45;;;12.90;99.90;;;;;;4969894;28;20098;-82
2023/03/23 13:31:13;;;;;;;12.07;3.97;;;12.80;99.90;;;;;;4965752;28;20057;-83
2023/03/23 13:34:00;;;;;;;10.02;2.28;;;12.80;99.90;;;;;;4984750;28;20050;-82
2023/03/23 13:36:44;;;;;;;5.30;1.70;;;12.80;99.90;;;;;;4998050;28;20046;-83
2023/03/23 13:39:30;;;;;;;9.95;2.42;;;12.80;99.90;;;;;;4995521;28;20089;-83
2023/03/23 13:42:11;;;;;;;15.10;3.05;;;12.80;99.90;;;;;;4981553;28;20038;-83
2023/03/23 13:44:52;;;;;;;12.35;2.50;;;12.90;99.90;;;;;;4978686;28;20129;-82
2023/03/23 13:47:21;;;;;;;12.10;2.30;;;12.90;99.90;;;;;;4977540;28;20033;-83
2023/03/23 13:50:03;;;;;;;15.48;2.33;;;12.90;99.90;;;;;;4992973;28;20050;-82
2023/03/23 13:52:44;;;;;;;10.18;2.00;;;13.10;99.90;;;;;;4980320;28;20137;-82
2023/03/23 13:55:16;;;;;;;11.00;2.85;;;13.40;99.90;;;;;;4979986;28;20053;-83
2023/03/23 13:58:05;;;;;;;13.80;1.88;;;13.60;99.90;;;;;;4996714;28;20045;-80
2023/03/23 14:00:33;;;;;;;7.90;1.95;;;13.90;99.90;;;;;;4991985;28;20049;-83